PWSweather.com
Personal Weather Stations
Station Observations
KAZSIERR7
Canyon De Flores, Sierra Vista, AZ 85650

Canyon De FloresSierra Vista, AZ 85650

Lat: 31.5, Lon: -110.26

Elevation: 4645

Station Type: LaCrosse WS-3610 & Boltek Lightning Detector

http://www.lightningring.com/weather/

High Low Average
Temperature 84.0°F28.9°C 48.1°F8.9°C 68.5°F20.3°C
Dew Point 22.8°F-5.1°C 4.3°F-15.4°C 13.9°F-10.1°C
Winds 11.7 mph 18.8 kmh Calm Calm 2.0 mph SSW3.2 kmh SSW
Wind Gusts 59.8 mph96.2 kmh -- 16.0 mph25.7 kmh
Humidity 29% 5% 14%
Pressure 30.05 in1017.6 mb 29.99 in1015.6 mb -
Precipitation 0.00 in0.0 mm - -
Hour Temp Dew Point Humidity Winds Wind Gusts Pressure Precip Precip Rate Daily Precip Total
12:07 AM 61.8°F16.6°C 15.1°F-9.4°C 16% Calm Calm -- 30.04 in1017.3 mb 0.00 in0.0 mm 0.00 in/hr0.0 mm/hr 0.00 in0.0 mm
12:18 AM 61.6°F16.4°C 14.9°F-9.5°C 16% Calm Calm -- 30.04 in1017.3 mb 0.00 in0.0 mm 0.00 in/hr0.0 mm/hr 0.00 in0.0 mm
12:28 AM 61.1°F16.2°C 14.5°F-9.7°C 16% Calm Calm -- 30.04 in1017.3 mb 0.00 in0.0 mm 0.00 in/hr0.0 mm/hr 0.00 in0.0 mm
12:39 AM 59.3°F15.2°C 14.4°F-9.8°C 17% Calm Calm -- 30.04 in1017.3 mb 0.00 in0.0 mm 0.00 in/hr0.0 mm/hr 0.00 in0.0 mm
12:49 AM 59.1°F15.1°C 14.3°F-9.8°C 17% Calm Calm -- 30.03 in1016.9 mb 0.00 in0.0 mm 0.00 in/hr0.0 mm/hr 0.00 in0.0 mm
01:00 AM 59.3°F15.2°C 14.4°F-9.8°C 17% Calm Calm -- 30.03 in1016.9 mb 0.00 in0.0 mm 0.00 in/hr0.0 mm/hr 0.00 in0.0 mm
01:10 AM 58.2°F14.6°C 13.5°F-10.3°C 17% Calm Calm -- 30.03 in1016.9 mb 0.00 in0.0 mm 0.00 in/hr0.0 mm/hr 0.00 in0.0 mm
01:21 AM 58.8°F14.9°C 12.6°F-10.8°C 16% Calm Calm -- 30.03 in1016.9 mb 0.00 in0.0 mm 0.00 in/hr0.0 mm/hr 0.00 in0.0 mm
01:31 AM 56.8°F13.8°C 13.7°F-10.2°C 18% Calm Calm -- 30.03 in1016.9 mb 0.00 in0.0 mm 0.00 in/hr0.0 mm/hr 0.00 in0.0 mm
01:42 AM 54.6°F12.6°C 14.2°F-9.9°C 20% Calm Calm -- 30.03 in1016.9 mb 0.00 in0.0 mm 0.00 in/hr0.0 mm/hr 0.00 in0.0 mm
01:52 AM 54.1°F12.3°C 12.7°F-10.7°C 19% Calm Calm -- 30.02 in1016.6 mb 0.00 in0.0 mm 0.00 in/hr0.0 mm/hr 0.00 in0.0 mm
02:03 AM 53.4°F11.9°C 13.2°F-10.4°C 20% Calm Calm -- 30.02 in1016.6 mb 0.00 in0.0 mm 0.00 in/hr0.0 mm/hr 0.00 in0.0 mm
02:13 AM 52.8°F11.6°C 13.8°F-10.1°C 21% Calm Calm -- 30.02 in1016.6 mb 0.00 in0.0 mm 0.00 in/hr0.0 mm/hr 0.00 in0.0 mm
02:24 AM 52.8°F11.6°C 13.8°F-10.1°C 21% Calm Calm -- 30.02 in1016.6 mb 0.00 in0.0 mm 0.00 in/hr0.0 mm/hr 0.00 in0.0 mm
02:34 AM 52.6°F11.4°C 13.7°F-10.2°C 21% Calm Calm -- 30.02 in1016.6 mb 0.00 in0.0 mm 0.00 in/hr0.0 mm/hr 0.00 in0.0 mm
02:45 AM 51.9°F11.1°C 14.1°F-9.9°C 22% Calm Calm -- 30.02 in1016.6 mb 0.00 in0.0 mm 0.00 in/hr0.0 mm/hr 0.00 in0.0 mm
02:55 AM 53.0°F11.7°C 14.0°F-10.0°C 21% Calm Calm -- 30.02 in1016.6 mb 0.00 in0.0 mm 0.00 in/hr0.0 mm/hr 0.00 in0.0 mm
03:06 AM 53.5°F11.9°C 14.4°F-9.8°C 21% Calm Calm -- 30.02 in1016.6 mb 0.00 in0.0 mm 0.00 in/hr0.0 mm/hr 0.00 in0.0 mm
03:16 AM 53.5°F11.9°C 14.4°F-9.8°C 21% Calm Calm -- 30.02 in1016.6 mb 0.00 in0.0 mm 0.00 in/hr0.0 mm/hr 0.00 in0.0 mm
03:27 AM 53.2°F11.8°C 14.2°F-9.9°C 21% Calm Calm -- 30.02 in1016.6 mb 0.00 in0.0 mm 0.00 in/hr0.0 mm/hr 0.00 in0.0 mm
03:38 AM 51.9°F11.1°C 14.1°F-9.9°C 22% Calm Calm -- 30.02 in1016.6 mb 0.00 in0.0 mm 0.00 in/hr0.0 mm/hr 0.00 in0.0 mm
03:48 AM 52.5°F11.4°C 13.6°F-10.2°C 21% Calm Calm -- 30.02 in1016.6 mb 0.00 in0.0 mm 0.00 in/hr0.0 mm/hr 0.00 in0.0 mm
03:58 AM 51.7°F10.9°C 14.0°F-10.0°C 22% Calm Calm -- 30.02 in1016.6 mb 0.00 in0.0 mm 0.00 in/hr0.0 mm/hr 0.00 in0.0 mm
04:09 AM 52.5°F11.4°C 14.6°F-9.7°C 22% Calm Calm -- 30.02 in1016.6 mb 0.00 in0.0 mm 0.00 in/hr0.0 mm/hr 0.00 in0.0 mm
04:19 AM 51.0°F10.6°C 15.3°F-9.3°C 24% Calm Calm -- 30.02 in1016.6 mb 0.00 in0.0 mm 0.00 in/hr0.0 mm/hr 0.00 in0.0 mm
04:30 AM 49.9°F9.9°C 13.4°F-10.3°C 23% Calm Calm -- 30.02 in1016.6 mb 0.00 in0.0 mm 0.00 in/hr0.0 mm/hr 0.00 in0.0 mm
04:40 AM 49.2°F9.6°C 15.6°F-9.1°C 26% Calm Calm -- 30.02 in1016.6 mb 0.00 in0.0 mm 0.00 in/hr0.0 mm/hr 0.00 in0.0 mm
04:51 AM 49.6°F9.8°C 15.9°F-8.9°C 26% Calm Calm -- 30.02 in1016.6 mb 0.00 in0.0 mm 0.00 in/hr0.0 mm/hr 0.00 in0.0 mm
05:01 AM 49.0°F9.4°C 16.3°F-8.7°C 27% Calm Calm -- 30.02 in1016.6 mb 0.00 in0.0 mm 0.00 in/hr0.0 mm/hr 0.00 in0.0 mm
05:12 AM 49.4°F9.7°C 15.8°F-9.0°C 26% Calm Calm -- 30.02 in1016.6 mb 0.00 in0.0 mm 0.00 in/hr0.0 mm/hr 0.00 in0.0 mm
05:22 AM 49.6°F9.8°C 14.1°F-9.9°C 24% Calm Calm -- 30.03 in1016.9 mb 0.00 in0.0 mm 0.00 in/hr0.0 mm/hr 0.00 in0.0 mm
05:33 AM 48.9°F9.4°C 15.3°F-9.3°C 26% Calm Calm -- 30.03 in1016.9 mb 0.00 in0.0 mm 0.00 in/hr0.0 mm/hr 0.00 in0.0 mm
05:43 AM 48.3°F9.1°C 15.7°F-9.1°C 27% Calm Calm -- 30.04 in1017.3 mb 0.00 in0.0 mm 0.00 in/hr0.0 mm/hr 0.00 in0.0 mm
05:54 AM 48.1°F8.9°C 15.5°F-9.2°C 27% Calm Calm -- 30.04 in1017.3 mb 0.00 in0.0 mm 0.00 in/hr0.0 mm/hr 0.00 in0.0 mm
06:05 AM 48.9°F9.4°C 17.8°F-7.9°C 29% Calm Calm -- 30.04 in1017.3 mb 0.00 in0.0 mm 0.00 in/hr0.0 mm/hr 0.00 in0.0 mm
06:15 AM 50.7°F10.4°C 17.7°F-7.9°C 27% Calm Calm -- 30.04 in1017.3 mb 0.00 in0.0 mm 0.00 in/hr0.0 mm/hr 0.00 in0.0 mm
06:26 AM 54.3°F12.4°C 19.1°F-7.2°C 25% Calm Calm -- 30.05 in1017.6 mb 0.00 in0.0 mm 0.00 in/hr0.0 mm/hr 0.00 in0.0 mm
06:36 AM 56.8°F13.8°C 18.2°F-7.7°C 22% Calm Calm -- 30.04 in1017.3 mb 0.00 in0.0 mm 0.00 in/hr0.0 mm/hr 0.00 in0.0 mm
06:47 AM 62.7°F17.1°C 18.5°F-7.5°C 18% Calm Calm -- 30.04 in1017.3 mb 0.00 in0.0 mm 0.00 in/hr0.0 mm/hr 0.00 in0.0 mm
06:57 AM 68.8°F20.4°C 20.7°F-6.3°C 16% Calm Calm -- 30.05 in1017.6 mb 0.00 in0.0 mm 0.00 in/hr0.0 mm/hr 0.00 in0.0 mm
07:08 AM 71.4°F21.9°C 22.8°F-5.1°C 16% Calm Calm -- 30.05 in1017.6 mb 0.00 in0.0 mm 0.00 in/hr0.0 mm/hr 0.00 in0.0 mm
07:18 AM 68.7°F20.4°C 22.1°F-5.5°C 17% Calm Calm -- 30.04 in1017.3 mb 0.00 in0.0 mm 0.00 in/hr0.0 mm/hr 0.00 in0.0 mm
07:29 AM 77.2°F25.1°C 18.4°F-7.6°C 11% Calm Calm -- 30.04 in1017.3 mb 0.00 in0.0 mm 0.00 in/hr0.0 mm/hr 0.00 in0.0 mm
07:39 AM 73.2°F22.9°C 17.4°F-8.1°C 12% 3.4 mph ESE5.5 kmh ESE 4.8 mph7.7 kmh 30.04 in1017.3 mb 0.00 in0.0 mm 0.00 in/hr0.0 mm/hr 0.00 in0.0 mm
07:50 AM 71.9°F22.2°C 16.4°F-8.7°C 12% 1.7 mph SE2.7 kmh SE 4.8 mph7.7 kmh 30.04 in1017.3 mb 0.00 in0.0 mm 0.00 in/hr0.0 mm/hr 0.00 in0.0 mm
08:00 AM 74.3°F23.5°C 16.1°F-8.8°C 11% 1.9 mph NE3.1 kmh NE 3.0 mph4.8 kmh 30.04 in1017.3 mb 0.00 in0.0 mm 0.00 in/hr0.0 mm/hr 0.00 in0.0 mm
08:11 AM 73.4°F23.0°C 17.5°F-8.1°C 12% 6.7 mph ESE10.8 kmh ESE 10.6 mph17.1 kmh 30.05 in1017.6 mb 0.00 in0.0 mm 0.00 in/hr0.0 mm/hr 0.00 in0.0 mm
08:21 AM 73.7°F23.2°C 17.7°F-7.9°C 12% 2.4 mph SE3.9 kmh SE 6.2 mph10.0 kmh 30.05 in1017.6 mb 0.00 in0.0 mm 0.00 in/hr0.0 mm/hr 0.00 in0.0 mm
08:32 AM 74.1°F23.4°C 18.1°F-7.7°C 12% 3.5 mph ESE5.6 kmh ESE 6.2 mph10.0 kmh 30.04 in1017.3 mb 0.00 in0.0 mm 0.00 in/hr0.0 mm/hr 0.00 in0.0 mm
08:43 AM 76.7°F24.8°C 17.9°F-7.8°C 11% Calm Calm 8.8 mph14.2 kmh 30.04 in1017.3 mb 0.00 in0.0 mm 0.00 in/hr0.0 mm/hr 0.00 in0.0 mm
08:53 AM 79.2°F26.2°C 19.9°F-6.7°C 11% Calm Calm 6.2 mph10.0 kmh 30.04 in1017.3 mb 0.00 in0.0 mm 0.00 in/hr0.0 mm/hr 0.00 in0.0 mm
09:04 AM 80.8°F27.1°C 18.9°F-7.3°C 10% Calm Calm 2.2 mph3.5 kmh 30.04 in1017.3 mb 0.00 in0.0 mm 0.00 in/hr0.0 mm/hr 0.00 in0.0 mm
09:14 AM 74.0°F23.3°C 13.6°F-10.2°C 10% 8.4 mph SE13.5 kmh SE 35.2 mph56.6 kmh 30.04 in1017.3 mb 0.00 in0.0 mm 0.00 in/hr0.0 mm/hr 0.00 in0.0 mm
09:25 AM 72.7°F22.6°C 17.0°F-8.3°C 12% 10.2 mph SE16.4 kmh SE 49.6 mph79.8 kmh 30.03 in1016.9 mb 0.00 in0.0 mm 0.00 in/hr0.0 mm/hr 0.00 in0.0 mm
09:35 AM 73.2°F22.9°C 15.3°F-9.3°C 11% 8.5 mph SE13.7 kmh SE 55.4 mph89.2 kmh 30.04 in1017.3 mb 0.00 in0.0 mm 0.00 in/hr0.0 mm/hr 0.00 in0.0 mm
09:46 AM 73.9°F23.3°C 17.9°F-7.8°C 12% 9.5 mph SE15.3 kmh SE 51.4 mph82.7 kmh 30.04 in1017.3 mb 0.00 in0.0 mm 0.00 in/hr0.0 mm/hr 0.00 in0.0 mm
09:56 AM 72.3°F22.4°C 16.7°F-8.5°C 12% 11.7 mph ESE18.8 kmh ESE 58.0 mph93.3 kmh 30.04 in1017.3 mb 0.00 in0.0 mm 0.00 in/hr0.0 mm/hr 0.00 in0.0 mm
10:06 AM 76.7°F24.8°C 13.3°F-10.4°C 9% Calm Calm 58.6 mph94.3 kmh 30.04 in1017.3 mb 0.00 in0.0 mm 0.00 in/hr0.0 mm/hr 0.00 in0.0 mm
10:17 AM 80.4°F26.9°C 20.8°F-6.2°C 11% 5.3 mph WSW8.5 kmh WSW 7.0 mph11.3 kmh 30.04 in1017.3 mb 0.00 in0.0 mm 0.00 in/hr0.0 mm/hr 0.00 in0.0 mm
10:28 AM 76.8°F24.9°C 15.8°F-9.0°C 10% 1.3 mph SE2.1 kmh SE 44.2 mph71.1 kmh 30.04 in1017.3 mb 0.00 in0.0 mm 0.00 in/hr0.0 mm/hr 0.00 in0.0 mm
10:38 AM 77.2°F25.1°C 16.1°F-8.8°C 10% 6.9 mph S11.1 kmh S 46.8 mph75.3 kmh 30.04 in1017.3 mb 0.00 in0.0 mm 0.00 in/hr0.0 mm/hr 0.00 in0.0 mm
10:48 AM 79.3°F26.3°C 17.7°F-7.9°C 10% 5.1 mph SW8.2 kmh SW 41.6 mph66.9 kmh 30.04 in1017.3 mb 0.00 in0.0 mm 0.00 in/hr0.0 mm/hr 0.00 in0.0 mm
10:59 AM 78.1°F25.6°C 16.8°F-8.4°C 10% Calm Calm 38.8 mph62.4 kmh 30.04 in1017.3 mb 0.00 in0.0 mm 0.00 in/hr0.0 mm/hr 0.00 in0.0 mm
11:09 AM 78.3°F25.7°C 11.7°F-11.3°C 8% 6.3 mph SSE10.1 kmh SSE 59.8 mph96.2 kmh 30.03 in1016.9 mb 0.00 in0.0 mm 0.00 in/hr0.0 mm/hr 0.00 in0.0 mm
11:20 AM 81.8°F27.7°C 17.1°F-8.3°C 9% Calm Calm 35.6 mph57.3 kmh 30.03 in1016.9 mb 0.00 in0.0 mm 0.00 in/hr0.0 mm/hr 0.00 in0.0 mm
11:31 AM 81.3°F27.4°C 14.0°F-10.0°C 8% 4.8 mph SSW7.7 kmh SSW 7.6 mph12.2 kmh 30.03 in1016.9 mb 0.00 in0.0 mm 0.00 in/hr0.0 mm/hr 0.00 in0.0 mm
11:41 AM 81.8°F27.7°C 11.4°F-11.4°C 7% 3.7 mph SW6.0 kmh SW 8.0 mph12.9 kmh 30.02 in1016.6 mb 0.00 in0.0 mm 0.00 in/hr0.0 mm/hr 0.00 in0.0 mm
11:52 AM 83.0°F28.3°C 12.2°F-11.0°C 7% 6.1 mph WSW9.8 kmh WSW 9.2 mph14.8 kmh 30.02 in1016.6 mb 0.00 in0.0 mm 0.00 in/hr0.0 mm/hr 0.00 in0.0 mm
12:02 PM 80.2°F26.8°C 13.2°F-10.4°C 8% 6.2 mph WSW10.0 kmh WSW 54.4 mph87.5 kmh 30.02 in1016.6 mb 0.00 in0.0 mm 0.00 in/hr0.0 mm/hr 0.00 in0.0 mm
12:13 PM 81.5°F27.5°C 14.1°F-9.9°C 8% Calm Calm 50.0 mph80.5 kmh 30.02 in1016.6 mb 0.00 in0.0 mm 0.00 in/hr0.0 mm/hr 0.00 in0.0 mm
12:23 PM 80.1°F26.7°C 7.0°F-13.9°C 6% 2.0 mph NNE3.2 kmh NNE 54.4 mph87.5 kmh 30.02 in1016.6 mb 0.00 in0.0 mm 0.00 in/hr0.0 mm/hr 0.00 in0.0 mm
12:34 PM 83.4°F28.6°C 9.3°F-12.6°C 6% 3.6 mph WNW5.8 kmh WNW 49.6 mph79.8 kmh 30.01 in1016.3 mb 0.00 in0.0 mm 0.00 in/hr0.0 mm/hr 0.00 in0.0 mm
12:44 PM 83.4°F28.6°C 9.3°F-12.6°C 6% 5.8 mph WSW9.3 kmh WSW 8.0 mph12.9 kmh 30.01 in1016.3 mb 0.00 in0.0 mm 0.00 in/hr0.0 mm/hr 0.00 in0.0 mm
12:55 PM 81.9°F27.7°C 4.6°F-15.2°C 5% 6.2 mph SW10.0 kmh SW 42.8 mph68.9 kmh 30.01 in1016.3 mb 0.00 in0.0 mm 0.00 in/hr0.0 mm/hr 0.00 in0.0 mm
01:05 PM 83.9°F28.8°C 6.0°F-14.4°C 5% 5.2 mph W8.4 kmh W 7.0 mph11.3 kmh 30.01 in1016.3 mb 0.00 in0.0 mm 0.00 in/hr0.0 mm/hr 0.00 in0.0 mm
01:16 PM 83.7°F28.7°C 5.9°F-14.5°C 5% 4.6 mph WSW7.4 kmh WSW 6.2 mph10.0 kmh 30.01 in1016.3 mb 0.00 in0.0 mm 0.00 in/hr0.0 mm/hr 0.00 in0.0 mm
01:26 PM 83.9°F28.8°C 6.1°F-14.4°C 5% 2.3 mph SW3.7 kmh SW 54.4 mph87.5 kmh 30.01 in1016.3 mb 0.00 in0.0 mm 0.00 in/hr0.0 mm/hr 0.00 in0.0 mm
01:37 PM 81.5°F27.5°C 4.3°F-15.4°C 5% 5.7 mph SSW9.2 kmh SSW 52.6 mph84.7 kmh 30.01 in1016.3 mb 0.00 in0.0 mm 0.00 in/hr0.0 mm/hr 0.00 in0.0 mm
01:47 PM 81.9°F27.7°C 4.6°F-15.2°C 5% 8.1 mph SSW13.0 kmh SSW 54.4 mph87.5 kmh 30.01 in1016.3 mb 0.00 in0.0 mm 0.00 in/hr0.0 mm/hr 0.00 in0.0 mm
01:58 PM 82.9°F28.3°C 8.9°F-12.8°C 6% 8.0 mph W12.9 kmh W 46.4 mph74.7 kmh 30.01 in1016.3 mb 0.00 in0.0 mm 0.00 in/hr0.0 mm/hr 0.00 in0.0 mm
02:08 PM 82.3°F27.9°C 8.5°F-13.1°C 6% 1.5 mph SSW2.4 kmh SSW 9.8 mph15.8 kmh 30.00 in1015.9 mb 0.00 in0.0 mm 0.00 in/hr0.0 mm/hr 0.00 in0.0 mm
02:19 PM 80.9°F27.2°C 13.7°F-10.2°C 8% 7.6 mph W12.2 kmh W 10.2 mph16.4 kmh 30.00 in1015.9 mb 0.00 in0.0 mm 0.00 in/hr0.0 mm/hr 0.00 in0.0 mm
02:29 PM 84.0°F28.9°C 9.7°F-12.4°C 6% 3.0 mph W4.8 kmh W 4.4 mph7.1 kmh 30.00 in1015.9 mb 0.00 in0.0 mm 0.00 in/hr0.0 mm/hr 0.00 in0.0 mm
02:40 PM 83.8°F28.8°C 9.6°F-12.4°C 6% 3.1 mph WSW5.0 kmh WSW 8.0 mph12.9 kmh 30.00 in1015.9 mb 0.00 in0.0 mm 0.00 in/hr0.0 mm/hr 0.00 in0.0 mm
02:50 PM 83.2°F28.4°C 9.1°F-12.7°C 6% 9.7 mph S15.6 kmh S 34.0 mph54.7 kmh 29.99 in1015.6 mb 0.00 in0.0 mm 0.00 in/hr0.0 mm/hr 0.00 in0.0 mm
03:01 PM 83.7°F28.7°C 15.8°F-9.0°C 8% 2.0 mph W3.2 kmh W 5.2 mph8.4 kmh 29.99 in1015.6 mb 0.00 in0.0 mm 0.00 in/hr0.0 mm/hr 0.00 in0.0 mm
03:11 PM 80.9°F27.2°C 13.7°F-10.2°C 8% 3.3 mph NNW5.3 kmh NNW 54.4 mph87.5 kmh 29.99 in1015.6 mb 0.00 in0.0 mm 0.00 in/hr0.0 mm/hr 0.00 in0.0 mm
03:22 PM 79.8°F26.6°C 6.7°F-14.1°C 6% 7.7 mph SW12.4 kmh SW 46.4 mph74.7 kmh 29.99 in1015.6 mb 0.00 in0.0 mm 0.00 in/hr0.0 mm/hr 0.00 in0.0 mm
03:32 PM 80.3°F26.8°C 7.0°F-13.9°C 6% 9.0 mph SW14.5 kmh SW 56.2 mph90.4 kmh 29.99 in1015.6 mb 0.00 in0.0 mm 0.00 in/hr0.0 mm/hr 0.00 in0.0 mm
03:42 PM 80.4°F26.9°C 7.1°F-13.8°C 6% 8.7 mph SSW14.0 kmh SSW 53.6 mph86.3 kmh 29.99 in1015.6 mb 0.00 in0.0 mm 0.00 in/hr0.0 mm/hr 0.00 in0.0 mm
03:53 PM 80.0°F26.7°C 6.8°F-14.0°C 6% 7.6 mph WSW12.2 kmh WSW 53.6 mph86.3 kmh 30.00 in1015.9 mb 0.00 in0.0 mm 0.00 in/hr0.0 mm/hr 0.00 in0.0 mm
04:04 PM 81.5°F27.5°C 14.2°F-9.9°C 8% 1.9 mph SW3.1 kmh SW 45.0 mph72.4 kmh 29.99 in1015.6 mb 0.00 in0.0 mm 0.00 in/hr0.0 mm/hr 0.00 in0.0 mm
04:15 PM 82.4°F28.0°C 8.5°F-13.1°C 6% Calm Calm 4.0 mph6.4 kmh 29.99 in1015.6 mb 0.00 in0.0 mm 0.00 in/hr0.0 mm/hr 0.00 in0.0 mm
04:25 PM 83.3°F28.5°C 9.2°F-12.7°C 6% 4.4 mph SSW7.1 kmh SSW 7.0 mph11.3 kmh 29.99 in1015.6 mb 0.00 in0.0 mm 0.00 in/hr0.0 mm/hr 0.00 in0.0 mm
04:36 PM 81.8°F27.7°C 8.1°F-13.3°C 6% 3.2 mph WSW5.1 kmh WSW 38.8 mph62.4 kmh 29.99 in1015.6 mb 0.00 in0.0 mm 0.00 in/hr0.0 mm/hr 0.00 in0.0 mm
04:46 PM 80.7°F27.1°C 7.4°F-13.7°C 6% 6.0 mph SW9.7 kmh SW 8.0 mph12.9 kmh 29.98 in1015.2 mb 0.00 in0.0 mm 0.00 in/hr0.0 mm/hr 0.00 in0.0 mm
04:57 PM 81.6°F27.6°C 14.2°F-9.9°C 8% 3.9 mph WNW6.3 kmh WNW 5.2 mph8.4 kmh 29.98 in1015.2 mb 0.00 in0.0 mm 0.00 in/hr0.0 mm/hr 0.00 in0.0 mm
05:07 PM 80.6°F27.0°C 7.3°F-13.7°C 6% 5.4 mph SW8.7 kmh SW 8.8 mph14.2 kmh 29.99 in1015.6 mb 0.00 in0.0 mm 0.00 in/hr0.0 mm/hr 0.00 in0.0 mm
05:18 PM 81.4°F27.4°C 11.1°F-11.6°C 7% 0.7 mph SW1.1 kmh SW 16.4 mph26.4 kmh 29.99 in1015.6 mb 0.00 in0.0 mm 0.00 in/hr0.0 mm/hr 0.00 in0.0 mm
05:28 PM 79.9°F26.6°C 12.9°F-10.6°C 8% 4.4 mph SW7.1 kmh SW 9.8 mph15.8 kmh 29.98 in1015.2 mb 0.00 in0.0 mm 0.00 in/hr0.0 mm/hr 0.00 in0.0 mm
05:39 PM 80.2°F26.8°C 13.2°F-10.4°C 8% Calm Calm 5.8 mph9.3 kmh 29.98 in1015.2 mb 0.00 in0.0 mm 0.00 in/hr0.0 mm/hr 0.00 in0.0 mm
05:49 PM 80.4°F26.9°C 13.3°F-10.4°C 8% Calm Calm -- 29.98 in1015.2 mb 0.00 in0.0 mm 0.00 in/hr0.0 mm/hr 0.00 in0.0 mm
06:00 PM 80.4°F26.9°C 16.0°F-8.9°C 9% Calm Calm 6.2 mph10.0 kmh 29.98 in1015.2 mb 0.00 in0.0 mm 0.00 in/hr0.0 mm/hr 0.00 in0.0 mm
06:10 PM 78.6°F25.9°C 12.0°F-11.1°C 8% 3.3 mph WNW5.3 kmh WNW 8.0 mph12.9 kmh 29.99 in1015.6 mb 0.00 in0.0 mm 0.00 in/hr0.0 mm/hr 0.00 in0.0 mm
06:21 PM 77.1°F25.1°C 10.9°F-11.7°C 8% 5.3 mph W8.5 kmh W 7.0 mph11.3 kmh 29.98 in1015.2 mb 0.00 in0.0 mm 0.00 in/hr0.0 mm/hr 0.00 in0.0 mm
06:31 PM 75.4°F24.1°C 12.3°F-10.9°C 9% 3.0 mph WNW4.8 kmh WNW 7.0 mph11.3 kmh 29.99 in1015.6 mb 0.00 in0.0 mm 0.00 in/hr0.0 mm/hr 0.00 in0.0 mm
06:42 PM 73.9°F23.3°C 11.1°F-11.6°C 9% 1.2 mph W1.9 kmh W 1.6 mph2.6 kmh 29.99 in1015.6 mb 0.00 in0.0 mm 0.00 in/hr0.0 mm/hr 0.00 in0.0 mm
06:52 PM 73.6°F23.1°C 15.6°F-9.1°C 11% 3.4 mph WSW5.5 kmh WSW 4.8 mph7.7 kmh 29.99 in1015.6 mb 0.00 in0.0 mm 0.00 in/hr0.0 mm/hr 0.00 in0.0 mm
07:03 PM 72.6°F22.6°C 12.6°F-10.8°C 10% 0.9 mph WSW1.4 kmh WSW 4.0 mph6.4 kmh 29.99 in1015.6 mb 0.00 in0.0 mm 0.00 in/hr0.0 mm/hr 0.00 in0.0 mm
07:13 PM 72.1°F22.3°C 14.4°F-9.8°C 11% Calm Calm -- 29.99 in1015.6 mb 0.00 in0.0 mm 0.00 in/hr0.0 mm/hr 0.00 in0.0 mm
07:24 PM 70.8°F21.6°C 13.4°F-10.3°C 11% Calm Calm -- 29.99 in1015.6 mb 0.00 in0.0 mm 0.00 in/hr0.0 mm/hr 0.00 in0.0 mm
07:34 PM 69.9°F21.1°C 12.7°F-10.7°C 11% Calm Calm -- 30.00 in1015.9 mb 0.00 in0.0 mm 0.00 in/hr0.0 mm/hr 0.00 in0.0 mm
07:45 PM 69.9°F21.1°C 12.7°F-10.7°C 11% 1.7 mph SW2.7 kmh SW 8.4 mph13.5 kmh 30.00 in1015.9 mb 0.00 in0.0 mm 0.00 in/hr0.0 mm/hr 0.00 in0.0 mm
07:55 PM 68.8°F20.4°C 11.9°F-11.2°C 11% Calm Calm 2.2 mph3.5 kmh 30.00 in1015.9 mb 0.00 in0.0 mm 0.00 in/hr0.0 mm/hr 0.00 in0.0 mm
08:06 PM 67.6°F19.8°C 11.0°F-11.7°C 11% Calm Calm -- 30.01 in1016.3 mb 0.00 in0.0 mm 0.00 in/hr0.0 mm/hr 0.00 in0.0 mm
08:16 PM 66.3°F19.1°C 12.0°F-11.1°C 12% Calm Calm -- 30.01 in1016.3 mb 0.00 in0.0 mm 0.00 in/hr0.0 mm/hr 0.00 in0.0 mm
08:27 PM 65.4°F18.6°C 9.3°F-12.6°C 11% Calm Calm -- 30.01 in1016.3 mb 0.00 in0.0 mm 0.00 in/hr0.0 mm/hr 0.00 in0.0 mm
08:37 PM 64.9°F18.3°C 10.9°F-11.7°C 12% Calm Calm -- 30.01 in1016.3 mb 0.00 in0.0 mm 0.00 in/hr0.0 mm/hr 0.00 in0.0 mm
08:48 PM 64.5°F18.1°C 10.6°F-11.9°C 12% Calm Calm -- 30.02 in1016.6 mb 0.00 in0.0 mm 0.00 in/hr0.0 mm/hr 0.00 in0.0 mm
08:58 PM 63.8°F17.7°C 10.0°F-12.2°C 12% Calm Calm -- 30.02 in1016.6 mb 0.00 in0.0 mm 0.00 in/hr0.0 mm/hr 0.00 in0.0 mm
09:09 PM 64.3°F17.9°C 10.4°F-12.0°C 12% Calm Calm -- 30.02 in1016.6 mb 0.00 in0.0 mm 0.00 in/hr0.0 mm/hr 0.00 in0.0 mm
09:19 PM 63.1°F17.3°C 11.3°F-11.5°C 13% Calm Calm -- 30.02 in1016.6 mb 0.00 in0.0 mm 0.00 in/hr0.0 mm/hr 0.00 in0.0 mm
09:30 PM 62.5°F16.9°C 10.8°F-11.8°C 13% Calm Calm -- 30.02 in1016.6 mb 0.00 in0.0 mm 0.00 in/hr0.0 mm/hr 0.00 in0.0 mm
09:40 PM 61.3°F16.3°C 9.9°F-12.3°C 13% Calm Calm -- 30.03 in1016.9 mb 0.00 in0.0 mm 0.00 in/hr0.0 mm/hr 0.00 in0.0 mm
09:51 PM 60.4°F15.8°C 9.2°F-12.7°C 13% Calm Calm -- 30.03 in1016.9 mb 0.00 in0.0 mm 0.00 in/hr0.0 mm/hr 0.00 in0.0 mm
10:02 PM 58.6°F14.8°C 9.4°F-12.6°C 14% Calm Calm -- 30.03 in1016.9 mb 0.00 in0.0 mm 0.00 in/hr0.0 mm/hr 0.00 in0.0 mm
10:12 PM 57.3°F14.1°C 9.9°F-12.3°C 15% Calm Calm -- 30.03 in1016.9 mb 0.00 in0.0 mm 0.00 in/hr0.0 mm/hr 0.00 in0.0 mm
10:23 PM 57.9°F14.4°C 10.4°F-12.0°C 15% Calm Calm -- 30.02 in1016.6 mb 0.00 in0.0 mm 0.00 in/hr0.0 mm/hr 0.00 in0.0 mm
10:33 PM 56.8°F13.8°C 9.5°F-12.5°C 15% Calm Calm -- 30.02 in1016.6 mb 0.00 in0.0 mm 0.00 in/hr0.0 mm/hr 0.00 in0.0 mm
10:44 PM 56.8°F13.8°C 9.5°F-12.5°C 15% Calm Calm -- 30.02 in1016.6 mb 0.00 in0.0 mm 0.00 in/hr0.0 mm/hr 0.00 in0.0 mm
10:54 PM 57.3°F14.1°C 9.9°F-12.3°C 15% Calm Calm -- 30.03 in1016.9 mb 0.00 in0.0 mm 0.00 in/hr0.0 mm/hr 0.00 in0.0 mm
11:04 PM 59.8°F15.4°C 10.4°F-12.0°C 14% Calm Calm -- 30.03 in1016.9 mb 0.00 in0.0 mm 0.00 in/hr0.0 mm/hr 0.00 in0.0 mm
11:17 PM 62.0°F16.7°C 10.4°F-12.0°C 13% Calm Calm 4.0 mph6.4 kmh 30.03 in1016.9 mb 0.00 in0.0 mm 0.00 in/hr0.0 mm/hr 0.00 in0.0 mm
11:27 PM 59.5°F15.3°C 10.1°F-12.2°C 14% Calm Calm -- 30.03 in1016.9 mb 0.00 in0.0 mm 0.00 in/hr0.0 mm/hr 0.00 in0.0 mm
11:38 PM 58.0°F14.4°C 12.0°F-11.1°C 16% Calm Calm -- 30.02 in1016.6 mb 0.00 in0.0 mm 0.00 in/hr0.0 mm/hr 0.00 in0.0 mm
11:48 PM 57.1°F13.9°C 9.8°F-12.3°C 15% Calm Calm -- 30.03 in1016.9 mb 0.00 in0.0 mm 0.00 in/hr0.0 mm/hr 0.00 in0.0 mm
11:59 PM 57.3°F14.1°C 9.9°F-12.3°C 15% Calm Calm -- 30.02 in1016.6 mb 0.00 in0.0 mm 0.00 in/hr0.0 mm/hr 0.00 in0.0 mm